createdAt,value
2019-05-10T00:02:08.046Z,89.20
2019-05-10T00:04:57.103Z,89.10
2019-05-10T00:07:45.596Z,88.70
2019-05-10T00:10:15.201Z,88.50
2019-05-10T00:12:47.582Z,88.00
2019-05-10T00:15:19.619Z,87.70
2019-05-10T00:17:51.415Z,86.60
2019-05-10T00:20:21.844Z,86.60
2019-05-10T00:22:52.857Z,86.50
2019-05-10T00:25:23.873Z,89.70
2019-05-10T00:27:54.267Z,90.90
2019-05-10T00:30:24.616Z,91.00
2019-05-10T00:32:55.023Z,90.90
2019-05-10T00:35:25.748Z,91.00
2019-05-10T00:37:56.109Z,91.20
2019-05-10T00:40:26.482Z,90.90
2019-05-10T00:42:56.925Z,90.70
2019-05-10T00:45:27.268Z,90.40
2019-05-10T00:47:57.961Z,90.40
2019-05-10T00:50:28.295Z,90.30
2019-05-10T00:52:59.006Z,89.80
2019-05-10T00:55:30.162Z,89.50
2019-05-10T00:58:00.524Z,90.10
2019-05-10T01:00:31.648Z,90.50
2019-05-10T01:03:02.667Z,90.60
2019-05-10T01:05:33.404Z,90.60
2019-05-10T01:08:03.793Z,90.40
2019-05-10T01:10:34.497Z,90.40
2019-05-10T01:13:04.834Z,90.10
2019-05-10T01:15:35.628Z,90.00
2019-05-10T01:18:05.965Z,89.50
2019-05-10T01:20:37.655Z,89.20
2019-05-10T01:23:08.011Z,88.90
2019-05-10T01:25:38.669Z,88.50
2019-05-10T01:28:09.826Z,88.20
2019-05-10T01:30:40.964Z,88.50
2019-05-10T01:33:12.035Z,87.80
2019-05-10T01:35:42.376Z,87.40
2019-05-10T01:38:12.801Z,87.70
2019-05-10T01:40:43.651Z,87.60
2019-05-10T01:43:14.483Z,87.50
2019-05-10T01:45:45.305Z,87.70
2019-05-10T01:48:16.421Z,88.10
2019-05-10T01:50:47.463Z,88.70
2019-05-10T01:53:18.455Z,88.30
2019-05-10T01:55:52.610Z,88.50
2019-05-10T01:58:21.237Z,88.80
2019-05-10T02:00:51.964Z,88.80
2019-05-10T02:03:22.354Z,89.10
2019-05-10T02:05:53.080Z,88.20
2019-05-10T02:08:23.809Z,87.70
2019-05-10T02:10:54.119Z,87.20
2019-05-10T02:13:24.772Z,86.90
2019-05-10T02:15:55.149Z,86.40
2019-05-10T02:18:26.110Z,84.90
2019-05-10T02:20:56.499Z,84.10
2019-05-10T02:23:27.350Z,82.40
2019-05-10T02:26:08.998Z,80.90
2019-05-10T02:28:29.804Z,81.90
2019-05-10T02:31:00.208Z,80.40
2019-05-10T02:33:30.527Z,79.10
2019-05-10T02:36:01.268Z,78.70
2019-05-10T02:38:31.607Z,77.90
2019-05-10T02:41:02.376Z,77.80
2019-05-10T02:43:32.745Z,77.10
2019-05-10T02:46:03.077Z,75.20
2019-05-10T02:48:33.981Z,75.40
2019-05-10T02:51:04.344Z,74.00
2019-05-10T02:53:34.739Z,72.30
2019-05-10T02:56:06.247Z,72.30
2019-05-10T02:58:36.666Z,72.30
2019-05-10T03:01:29.250Z,72.40
2019-05-10T03:04:03.023Z,72.40
2019-05-10T03:06:34.833Z,71.90
2019-05-10T03:09:07.566Z,72.70
2019-05-10T03:11:47.045Z,74.00
2019-05-10T03:14:20.465Z,74.20
2019-05-10T03:16:51.592Z,74.80
2019-05-10T03:19:22.771Z,75.10
2019-05-10T03:21:58.224Z,74.00
2019-05-10T03:24:29.160Z,73.30
2019-05-10T03:27:00.698Z,72.40
2019-05-10T03:29:31.346Z,72.40
2019-05-10T03:32:02.055Z,71.10
2019-05-10T03:34:33.023Z,70.70
2019-05-10T03:37:03.995Z,70.30
2019-05-10T03:39:34.345Z,70.40
2019-05-10T03:42:05.190Z,70.50
2019-05-10T03:44:35.575Z,70.10
2019-05-10T03:47:06.045Z,69.00
2019-05-10T03:49:36.607Z,69.90
2019-05-10T03:52:07.035Z,69.90
2019-05-10T03:54:37.697Z,69.70
2019-05-10T03:57:13.885Z,69.80
2019-05-10T03:59:40.378Z,68.80
2019-05-10T04:02:10.711Z,69.10
2019-05-10T04:04:41.758Z,68.80
2019-05-10T04:07:12.793Z,68.80
2019-05-10T04:09:43.173Z,68.60
2019-05-10T04:12:14.283Z,67.90
2019-05-10T04:14:45.318Z,68.60
2019-05-10T04:17:15.719Z,68.00
2019-05-10T04:19:46.405Z,68.00
2019-05-10T04:22:16.796Z,67.20
2019-05-10T04:24:47.541Z,68.00
2019-05-10T04:27:31.684Z,67.20
2019-05-10T04:29:50.338Z,67.70
2019-05-10T04:32:21.333Z,68.10
2019-05-10T04:34:52.116Z,67.60
2019-05-10T04:37:22.636Z,65.70
2019-05-10T04:39:53.067Z,66.40
2019-05-10T04:42:23.462Z,65.60
2019-05-10T04:44:54.218Z,65.20
2019-05-10T04:47:24.625Z,65.90
2019-05-10T04:49:55.318Z,65.60
2019-05-10T04:52:25.712Z,65.00
2019-05-10T04:54:56.444Z,63.50
2019-05-10T04:57:26.844Z,63.50
2019-05-10T04:59:57.487Z,63.50
2019-05-10T05:02:27.934Z,61.60
2019-05-10T05:04:58.261Z,62.80
2019-05-10T05:07:28.687Z,62.50
2019-05-10T05:09:59.012Z,63.40
2019-05-10T05:12:29.567Z,64.00
2019-05-10T05:14:59.909Z,63.40
2019-05-10T05:17:30.765Z,63.50
2019-05-10T05:20:01.158Z,63.50
2019-05-10T05:22:31.537Z,63.50
2019-05-10T05:25:04.885Z,63.50
2019-05-10T05:27:35.309Z,63.20
2019-05-10T05:30:09.513Z,63.50
2019-05-10T05:32:44.587Z,62.70
2019-05-10T05:35:15.384Z,62.30
2019-05-10T05:37:44.724Z,61.00
2019-05-10T05:40:15.085Z,60.60
2019-05-10T05:42:46.120Z,60.50
2019-05-10T05:45:17.356Z,59.20
2019-05-10T05:47:47.732Z,57.70
2019-05-10T05:50:18.259Z,57.40
2019-05-10T05:52:48.665Z,56.80
2019-05-10T05:55:22.706Z,56.50
2019-05-10T05:57:51.041Z,55.80
2019-05-10T06:00:44.749Z,55.50
2019-05-10T06:03:19.538Z,55.70
2019-05-10T06:05:45.912Z,55.20
2019-05-10T06:08:22.738Z,54.30
2019-05-10T06:10:56.082Z,52.90
2019-05-10T06:13:23.342Z,52.50
2019-05-10T06:15:53.943Z,52.40
2019-05-10T06:18:24.297Z,51.30
2019-05-10T06:20:55.312Z,51.40
2019-05-10T06:23:29.051Z,50.90
2019-05-10T06:25:58.375Z,49.90
2019-05-10T06:28:56.486Z,50.00
2019-05-10T06:31:01.207Z,49.80
2019-05-10T06:33:31.797Z,49.60
2019-05-10T06:36:02.455Z,49.00
2019-05-10T06:38:32.813Z,48.90
2019-05-10T06:41:03.864Z,48.20
2019-05-10T06:43:34.298Z,47.40
2019-05-10T06:46:05.080Z,48.10
2019-05-10T06:48:35.755Z,47.00
2019-05-10T06:51:09.563Z,47.30
2019-05-10T06:53:42.237Z,47.20
2019-05-10T06:56:11.429Z,47.60
2019-05-10T06:58:42.216Z,45.90
2019-05-10T07:01:13.345Z,46.30
2019-05-10T07:03:44.261Z,45.70
2019-05-10T07:06:14.659Z,45.70
2019-05-10T07:08:45.982Z,46.20
2019-05-10T07:11:16.483Z,45.70
2019-05-10T07:13:52.044Z,47.10
2019-05-10T07:16:23.932Z,46.50
2019-05-10T07:18:54.743Z,45.60
2019-05-10T07:21:23.520Z,46.50
2019-05-10T07:23:53.852Z,45.70
2019-05-10T07:26:26.741Z,46.10
2019-05-10T07:28:57.645Z,45.50
2019-05-10T07:31:28.884Z,46.40
2019-05-10T07:33:59.234Z,45.40
2019-05-10T07:36:30.956Z,45.70
2019-05-10T07:39:02.818Z,45.50
2019-05-10T07:41:34.417Z,44.60
2019-05-10T07:44:08.100Z,44.60
2019-05-10T07:46:40.241Z,46.90
2019-05-10T07:49:09.269Z,48.90
2019-05-10T07:51:39.656Z,50.00
2019-05-10T07:54:10.369Z,51.60
2019-05-10T07:56:45.585Z,51.60
2019-05-10T07:59:16.153Z,50.90
2019-05-10T08:01:48.789Z,48.20
2019-05-10T08:04:21.943Z,47.90
2019-05-10T08:06:52.044Z,48.80
2019-05-10T08:09:22.602Z,49.30
2019-05-10T08:11:54.266Z,47.40
2019-05-10T08:14:25.571Z,48.50
2019-05-10T08:17:01.962Z,47.70
2019-05-10T08:19:32.839Z,47.70
2019-05-10T08:22:04.034Z,45.80
2019-05-10T08:24:35.461Z,45.40
2019-05-10T08:27:11.488Z,45.70
2019-05-10T08:29:39.257Z,47.40
2019-05-10T08:32:12.245Z,46.60
2019-05-10T08:34:51.721Z,45.60
2019-05-10T08:37:19.336Z,45.80
2019-05-10T08:39:49.434Z,46.20
2019-05-10T08:42:34.729Z,44.20
2019-05-10T08:45:03.159Z,44.30
2019-05-10T08:47:27.495Z,44.40
2019-05-10T08:50:10.909Z,43.30
2019-05-10T08:52:31.637Z,42.70
2019-05-10T08:55:02.947Z,42.00
2019-05-10T08:57:34.886Z,41.70
2019-05-10T09:00:09.076Z,43.10
2019-05-10T09:02:42.488Z,41.20
2019-05-10T09:05:12.603Z,40.50
2019-05-10T09:07:45.435Z,40.10
2019-05-10T09:10:15.316Z,39.50
2019-05-10T09:12:51.128Z,40.30
2019-05-10T09:15:17.912Z,41.30
2019-05-10T09:17:48.414Z,43.00
2019-05-10T09:20:21.785Z,44.90
2019-05-10T09:22:52.799Z,46.90
2019-05-10T09:25:28.777Z,49.60
2019-05-10T09:27:56.206Z,49.50
2019-05-10T09:30:35.549Z,49.20
2019-05-10T09:33:10.312Z,49.40
2019-05-10T09:35:59.206Z,47.80
2019-05-10T09:38:37.151Z,48.20
2019-05-10T09:41:02.433Z,45.70
2019-05-10T09:43:33.529Z,43.80
2019-05-10T09:46:04.244Z,44.00
2019-05-10T09:48:35.008Z,44.10
2019-05-10T09:51:05.794Z,42.90
2019-05-10T09:53:38.289Z,44.00
2019-05-10T09:56:09.056Z,42.90
2019-05-10T09:58:39.464Z,45.50
2019-05-10T10:01:17.813Z,48.40
2019-05-10T10:03:43.591Z,51.00
2019-05-10T10:06:14.324Z,49.80
2019-05-10T10:08:51.342Z,52.00
2019-05-10T10:11:18.737Z,54.30
2019-05-10T10:13:58.686Z,55.30
2019-05-10T10:16:22.421Z,57.10
2019-05-10T10:18:52.805Z,57.20
2019-05-10T10:21:30.576Z,57.20
2019-05-10T10:24:00.001Z,56.30
2019-05-10T10:26:27.427Z,58.80
2019-05-10T10:29:00.100Z,56.70
2019-05-10T10:31:33.436Z,52.50
2019-05-10T10:34:03.130Z,51.10
2019-05-10T10:36:40.403Z,49.90
2019-05-10T10:39:08.078Z,48.60
2019-05-10T10:41:38.423Z,46.60
2019-05-10T10:44:08.851Z,46.00
2019-05-10T10:46:39.434Z,47.20
2019-05-10T10:49:13.952Z,49.20
2019-05-10T10:51:42.709Z,49.70
2019-05-10T10:54:13.049Z,50.30
2019-05-10T10:56:43.448Z,51.00
2019-05-10T10:59:14.184Z,50.00
2019-05-10T11:01:50.408Z,50.40
2019-05-10T11:04:17.378Z,45.10
2019-05-10T11:06:48.091Z,46.80
2019-05-10T11:09:20.660Z,43.70
2019-05-10T11:11:51.777Z,45.00
2019-05-10T11:14:22.566Z,44.70
2019-05-10T11:16:57.031Z,43.90
2019-05-10T11:19:25.416Z,44.00
2019-05-10T11:21:55.756Z,42.80
2019-05-10T11:24:26.150Z,42.40
2019-05-10T11:26:56.894Z,38.60
2019-05-10T11:29:28.107Z,36.20
2019-05-10T11:32:12.164Z,36.20
2019-05-10T11:34:37.452Z,37.10
2019-05-10T11:37:03.214Z,36.00
2019-05-10T11:39:45.167Z,36.70
2019-05-10T11:42:07.340Z,35.10
2019-05-10T11:44:41.573Z,35.20
2019-05-10T11:47:22.886Z,35.80
2019-05-10T11:49:42.245Z,37.70
2019-05-10T11:52:13.391Z,39.30
2019-05-10T11:54:43.954Z,42.30
2019-05-10T11:57:14.826Z,44.00
2019-05-10T11:59:45.167Z,44.20
2019-05-10T12:04:47.610Z,43.60
2019-05-10T12:07:27.455Z,40.30
2019-05-10T12:12:29.519Z,39.30
2019-05-10T12:14:54.538Z,38.50
2019-05-10T12:17:25.662Z,37.90
2019-05-10T12:19:56.620Z,38.10
2019-05-10T12:25:20.707Z,37.90
2019-05-10T12:26:05.557Z,37.20
2019-05-10T12:26:15.570Z,43.60
2019-05-10T12:26:31.061Z,40.00
2019-05-10T12:27:44.399Z,36.60
2019-05-10T12:30:05.965Z,35.50
2019-05-10T12:32:42.009Z,35.50
2019-05-10T12:35:08.421Z,34.30
2019-05-10T12:37:39.702Z,34.30
2019-05-10T12:40:14.909Z,36.00
2019-05-10T12:42:46.733Z,38.20
2019-05-10T12:45:15.911Z,42.60
2019-05-10T12:47:46.526Z,44.00
2019-05-10T12:50:16.943Z,46.90
2019-05-10T12:52:52.340Z,48.30
2019-05-10T12:55:19.372Z,49.80
2019-05-10T12:57:49.735Z,47.90
2019-05-10T13:00:20.917Z,45.60
2019-05-10T13:02:53.311Z,42.40
2019-05-10T13:05:30.842Z,42.20
2019-05-10T13:11:18.844Z,37.90
2019-05-10T13:13:48.988Z,38.10
2019-05-10T13:16:19.354Z,37.50
2019-05-10T13:18:52.422Z,37.10
2019-05-10T13:21:23.118Z,38.00
2019-05-10T13:23:55.368Z,40.00
2019-05-10T13:26:25.879Z,38.10
2019-05-10T13:28:56.265Z,37.90
2019-05-10T13:31:26.629Z,38.50
2019-05-10T13:33:57.007Z,39.50
2019-05-10T13:36:30.626Z,39.00
2019-05-10T13:38:59.737Z,37.60
2019-05-10T13:41:30.148Z,38.20
2019-05-10T13:44:04.837Z,38.20
2019-05-10T13:46:33.359Z,38.50
2019-05-10T13:49:04.464Z,38.30
2019-05-10T13:51:35.247Z,38.40
2019-05-10T13:54:07.625Z,39.80
2019-05-10T13:56:45.281Z,38.00
2019-05-10T13:59:30.131Z,37.30
2019-05-10T14:02:00.864Z,38.10
2019-05-10T14:04:34.017Z,37.60
2019-05-10T14:07:03.917Z,37.40
2019-05-10T14:09:34.518Z,37.30
2019-05-10T14:12:04.977Z,36.70
2019-05-10T14:14:35.649Z,37.00
2019-05-10T14:17:06.105Z,36.40
2019-05-10T14:19:36.791Z,36.30
2019-05-10T14:22:07.576Z,36.20
2019-05-10T14:24:37.966Z,36.40
2019-05-10T14:27:08.842Z,35.80
2019-05-10T14:29:39.171Z,35.00
2019-05-10T14:32:09.935Z,34.10
2019-05-10T14:34:44.270Z,35.10
2019-05-10T14:37:14.115Z,35.00
2019-05-10T14:39:45.686Z,35.10
2019-05-10T14:42:16.841Z,34.90
2019-05-10T14:44:47.202Z,35.90
2019-05-10T14:47:18.045Z,34.90
2019-05-10T14:49:48.803Z,34.80
2019-05-10T14:52:22.367Z,35.00
2019-05-10T14:54:55.382Z,35.80
2019-05-10T14:57:23.784Z,35.30
2019-05-10T14:59:54.552Z,36.20
2019-05-10T15:02:25.254Z,35.90
2019-05-10T15:04:55.866Z,36.20
2019-05-10T15:07:27.032Z,35.70
2019-05-10T15:10:00.581Z,36.00
2019-05-10T15:12:30.091Z,37.30
2019-05-10T15:15:01.094Z,37.70
2019-05-10T15:17:32.120Z,36.80
2019-05-10T15:20:02.579Z,35.80
2019-05-10T15:22:32.908Z,36.20
2019-05-10T15:25:03.454Z,34.60
2019-05-10T15:27:34.277Z,34.40
2019-05-10T15:30:08.148Z,34.20
2019-05-10T15:32:38.809Z,34.40
2019-05-10T15:35:09.542Z,35.30
2019-05-10T15:37:46.388Z,34.20
2019-05-10T15:40:12.400Z,33.70
2019-05-10T15:42:43.470Z,33.30
2019-05-10T15:45:14.647Z,33.10
2019-05-10T15:47:51.324Z,32.80
2019-05-10T15:50:17.586Z,32.20
2019-05-10T15:52:48.800Z,31.30
2019-05-10T15:55:26.935Z,32.80
2019-05-10T15:57:57.739Z,34.40
2019-05-10T16:00:25.496Z,35.50
2019-05-10T16:02:56.754Z,37.70
2019-05-10T16:05:42.422Z,39.30
2019-05-10T16:07:59.271Z,40.90
2019-05-10T16:10:38.686Z,42.00
2019-05-10T16:13:01.743Z,42.60
2019-05-10T16:15:32.114Z,42.10
2019-05-10T16:18:02.456Z,42.50
2019-05-10T16:20:37.382Z,41.40
2019-05-10T16:23:08.732Z,38.30
2019-05-10T16:25:41.534Z,37.10
2019-05-10T16:28:09.472Z,36.50
2019-05-10T16:30:39.850Z,36.90
2019-05-10T16:33:15.585Z,37.40
2019-05-10T16:35:44.128Z,38.00
2019-05-10T16:38:15.311Z,37.10
2019-05-10T16:40:57.151Z,37.20
2019-05-10T16:43:23.908Z,37.80
2019-05-10T16:45:50.241Z,37.40
2019-05-10T16:48:20.623Z,36.60
2019-05-10T16:50:51.238Z,36.50
2019-05-10T16:53:21.643Z,37.00
2019-05-10T16:55:52.004Z,36.90
2019-05-10T16:58:22.731Z,37.00
2019-05-10T17:00:54.044Z,37.00
2019-05-10T17:03:24.779Z,36.10
2019-05-10T17:05:58.809Z,35.80
2019-05-10T17:08:30.632Z,36.10
2019-05-10T17:11:09.498Z,36.40
2019-05-10T17:13:36.471Z,36.20
2019-05-10T17:16:04.522Z,36.40
2019-05-10T17:18:35.233Z,36.50
2019-05-10T17:21:05.943Z,36.30
2019-05-10T17:23:36.296Z,36.80
2019-05-10T17:26:06.673Z,36.50
2019-05-10T17:28:37.483Z,37.00
2019-05-10T17:31:09.593Z,37.10
2019-05-10T17:33:42.492Z,37.40
2019-05-10T17:36:14.437Z,37.70
2019-05-10T17:38:47.324Z,38.50
2019-05-10T17:41:19.366Z,38.70
2019-05-10T17:43:48.810Z,39.10
2019-05-10T17:46:20.850Z,40.10
2019-05-10T17:48:51.239Z,41.10
2019-05-10T17:51:21.698Z,41.90
2019-05-10T17:53:54.929Z,41.90
2019-05-10T17:56:24.664Z,42.00
2019-05-10T17:58:55.090Z,41.70
2019-05-10T18:01:25.838Z,41.70
2019-05-10T18:03:56.575Z,41.70
2019-05-10T18:06:26.956Z,41.60
2019-05-10T18:08:57.294Z,41.50
2019-05-10T18:11:27.651Z,42.00
2019-05-10T18:13:58.590Z,42.50
2019-05-10T18:16:29.492Z,42.60
2019-05-10T18:19:24.437Z,42.80
2019-05-10T18:21:54.879Z,42.90
2019-05-10T18:24:23.894Z,42.50
2019-05-10T18:26:54.286Z,41.50
2019-05-10T18:29:25.327Z,41.70
2019-05-10T18:31:58.386Z,41.70
2019-05-10T18:34:47.469Z,42.10
2019-05-10T18:37:21.814Z,42.10
2019-05-10T18:39:52.845Z,42.50
2019-05-10T18:42:25.497Z,42.50
2019-05-10T18:44:54.529Z,43.30
2019-05-10T18:47:25.322Z,44.50
2019-05-10T18:49:56.036Z,45.30
2019-05-10T18:52:26.671Z,45.60
2019-05-10T18:54:57.022Z,46.30
2019-05-10T18:57:28.140Z,46.90
2019-05-10T18:59:58.649Z,47.30
2019-05-10T19:02:28.991Z,47.70
2019-05-10T19:04:59.376Z,48.10
2019-05-10T19:07:30.210Z,47.70
2019-05-10T19:10:01.285Z,47.40
2019-05-10T19:12:32.226Z,47.20
2019-05-10T19:15:09.008Z,47.50
2019-05-10T19:17:40.458Z,47.50
2019-05-10T19:20:15.651Z,47.90
2019-05-10T19:22:42.687Z,48.10
2019-05-10T19:25:14.507Z,48.40
2019-05-10T19:27:50.583Z,48.30
2019-05-10T19:30:20.766Z,48.60
2019-05-10T19:32:55.858Z,49.10
2019-05-10T19:35:23.416Z,49.80
2019-05-10T19:37:53.788Z,49.00
2019-05-10T19:40:24.464Z,49.00
2019-05-10T19:42:55.213Z,49.00
2019-05-10T19:45:25.959Z,49.60
2019-05-10T19:47:57.242Z,49.60
2019-05-10T19:50:30.895Z,49.60
2019-05-10T19:53:03.756Z,50.10
2019-05-10T19:55:32.642Z,50.20
2019-05-10T19:58:03.290Z,50.30
2019-05-10T20:00:33.894Z,50.60
2019-05-10T20:03:04.660Z,50.60
2019-05-10T20:05:35.708Z,50.80
2019-05-10T20:08:06.477Z,50.70
2019-05-10T20:10:36.858Z,51.20
2019-05-10T20:13:08.156Z,51.00
2019-05-10T20:15:38.984Z,51.10
2019-05-10T20:18:09.443Z,51.10
2019-05-10T20:20:40.239Z,51.10
2019-05-10T20:23:10.957Z,51.00
2019-05-10T20:25:41.692Z,51.80
2019-05-10T20:28:12.443Z,51.50
2019-05-10T20:30:43.325Z,51.60
2019-05-10T20:33:13.983Z,51.80
2019-05-10T20:35:44.394Z,51.90
2019-05-10T20:38:15.385Z,51.90
2019-05-10T20:40:46.417Z,52.10
2019-05-10T20:43:17.258Z,52.30
2019-05-10T20:45:59.557Z,52.50
2019-05-10T20:48:29.968Z,52.60
2019-05-10T20:51:00.896Z,52.90
2019-05-10T20:53:31.616Z,52.80
2019-05-10T20:56:02.697Z,52.90
2019-05-10T20:58:33.407Z,52.70
2019-05-10T21:01:04.145Z,52.70
2019-05-10T21:03:34.546Z,53.00
2019-05-10T21:06:05.564Z,52.50
2019-05-10T21:08:35.902Z,52.80
2019-05-10T21:11:06.270Z,53.00
2019-05-10T21:13:36.674Z,53.50
2019-05-10T21:16:07.079Z,53.50
2019-05-10T21:18:37.467Z,53.50
2019-05-10T21:21:08.163Z,52.60
2019-05-10T21:23:38.670Z,52.80
2019-05-10T21:26:28.822Z,52.70
2019-05-10T21:28:59.457Z,53.20
2019-05-10T21:31:29.881Z,53.10
2019-05-10T21:34:09.363Z,53.20
2019-05-10T21:36:32.665Z,53.30
2019-05-10T21:39:22.483Z,53.40
2019-05-10T21:42:03.699Z,54.00
2019-05-10T21:44:34.065Z,53.30
2019-05-10T21:47:04.897Z,53.20
2019-05-10T21:49:35.278Z,54.10
2019-05-10T21:52:05.929Z,54.60
2019-05-10T21:54:36.535Z,54.80
2019-05-10T21:57:06.962Z,54.50
2019-05-10T21:59:37.373Z,54.60
2019-05-10T22:02:08.082Z,54.80
2019-05-10T22:04:38.393Z,55.90
2019-05-10T22:07:08.848Z,56.80
2019-05-10T22:09:39.159Z,57.20
2019-05-10T22:12:09.586Z,57.20
2019-05-10T22:14:39.924Z,57.90
2019-05-10T22:17:10.661Z,57.90
2019-05-10T22:19:41.032Z,58.20
2019-05-10T22:22:11.768Z,57.90
2019-05-10T22:24:42.802Z,57.90
2019-05-10T22:27:13.467Z,58.00
2019-05-10T22:29:44.107Z,58.70
2019-05-10T22:32:14.500Z,59.60
2019-05-10T22:34:45.556Z,59.50
2019-05-10T22:37:16.173Z,59.70
2019-05-10T22:39:46.538Z,59.90
2019-05-10T22:42:16.874Z,60.40
2019-05-10T22:44:47.244Z,61.40
2019-05-10T22:47:17.854Z,61.40
2019-05-10T22:49:48.264Z,62.10
2019-05-10T22:52:18.986Z,62.80
2019-05-10T22:54:49.705Z,63.30
2019-05-10T22:57:20.446Z,63.50
2019-05-10T22:59:50.787Z,63.80
2019-05-10T23:02:21.179Z,64.30
2019-05-10T23:04:51.795Z,64.90
2019-05-10T23:07:22.633Z,65.60
2019-05-10T23:09:52.976Z,65.40
2019-05-10T23:12:23.347Z,65.60
2019-05-10T23:14:53.736Z,66.50
2019-05-10T23:17:25.062Z,66.90
2019-05-10T23:19:55.796Z,67.30
2019-05-10T23:22:26.459Z,67.90
2019-05-10T23:24:57.111Z,68.50
2019-05-10T23:27:27.495Z,69.20
2019-05-10T23:29:58.466Z,69.60
2019-05-10T23:32:28.852Z,69.30
2019-05-10T23:34:59.487Z,70.40
2019-05-10T23:37:30.166Z,70.30
2019-05-10T23:40:00.880Z,72.00
2019-05-10T23:42:31.674Z,72.70
2019-05-10T23:45:02.071Z,73.60
2019-05-10T23:47:33.232Z,73.80
2019-05-10T23:50:03.850Z,73.90
2019-05-10T23:52:34.479Z,74.20
2019-05-10T23:55:05.981Z,74.80
2019-05-10T23:57:36.340Z,75.10
